Spring Valley, Texas
Current Conditions -  °F | °C
As of 2:35 PM on Tuesday 25 Nov 2014 (Local Time) from KMCJ Reporting Station
Clear Clear  
Wind Chill: 66°   Ceiling: Unl
Heat Index: 66°   Visibility: 10mi
Dew Point: 25°   Wind: 9mph
Humidity: 21%   Direction: 330°NNW
Pressure: 30.2"   Gusts: 17mph
Location:  29.7698°N, 95.5164°W
Report Text: KMCJ 252035Z AUTO 33008G15KT 10SM CLR 19/M04 A3020 RMK AO1
Loading
Personal Weather Stations






























Interactive Weather Map New forecast layout! Learn more

10-Day Weather Forecast

Advertisements
Track Severe Weather on mobile